createdAt,value
2018-09-22T00:00:46.779Z,14.90
2018-09-22T00:01:52.052Z,14.90
2018-09-22T00:02:56.970Z,14.90
2018-09-22T00:04:01.990Z,14.90
2018-09-22T00:05:07.209Z,14.90
2018-09-22T00:06:13.193Z,15.10
2018-09-22T00:07:18.123Z,15.00
2018-09-22T00:08:22.714Z,14.90
2018-09-22T00:09:27.658Z,14.90
2018-09-22T00:10:32.330Z,14.90
2018-09-22T00:11:39.073Z,15.00
2018-09-22T00:12:43.629Z,15.00
2018-09-22T00:13:48.351Z,15.00
2018-09-22T00:14:52.951Z,14.90
2018-09-22T00:15:57.499Z,14.90
2018-09-22T00:17:02.492Z,15.00
2018-09-22T00:18:07.109Z,15.00
2018-09-22T00:19:11.884Z,14.80
2018-09-22T00:20:16.511Z,15.20
2018-09-22T00:21:21.504Z,15.10
2018-09-22T00:22:26.389Z,15.10
2018-09-22T00:23:31.401Z,15.00
2018-09-22T00:24:37.816Z,15.00
2018-09-22T00:25:42.519Z,15.10
2018-09-22T00:26:47.563Z,15.00
2018-09-22T00:27:52.392Z,15.00
2018-09-22T00:28:57.300Z,15.00
2018-09-22T00:30:03.014Z,15.00
2018-09-22T00:31:08.335Z,15.00
2018-09-22T00:32:13.160Z,15.00
2018-09-22T00:33:17.948Z,14.90
2018-09-22T00:34:22.804Z,15.00
2018-09-22T00:35:28.429Z,14.70
2018-09-22T00:36:34.390Z,15.00
2018-09-22T00:37:39.136Z,15.50
2018-09-22T00:38:43.860Z,15.00
2018-09-22T00:39:49.260Z,14.90
2018-09-22T00:40:53.975Z,15.00
2018-09-22T00:41:58.721Z,15.00
2018-09-22T00:43:04.052Z,15.00
2018-09-22T00:44:09.254Z,15.00
2018-09-22T00:45:14.551Z,15.00
2018-09-22T00:46:19.615Z,15.10
2018-09-22T00:47:24.545Z,15.00
2018-09-22T00:48:29.374Z,15.00
2018-09-22T00:49:34.509Z,15.00
2018-09-22T00:50:39.228Z,14.90
2018-09-22T00:51:45.712Z,15.00
2018-09-22T00:52:50.569Z,15.00
2018-09-22T00:54:58.405Z,14.50
2018-09-22T00:56:03.052Z,15.00
2018-09-22T00:57:08.115Z,15.50
2018-09-22T00:58:13.112Z,15.00
2018-09-22T00:59:18.040Z,15.00
2018-09-22T01:00:23.119Z,15.00
2018-09-22T01:01:28.591Z,15.00
2018-09-22T01:02:33.376Z,15.00
2018-09-22T01:03:38.392Z,15.40
2018-09-22T01:04:43.407Z,15.00
2018-09-22T01:05:48.402Z,15.00
2018-09-22T01:06:53.155Z,15.00
2018-09-22T01:07:57.734Z,15.00
2018-09-22T01:09:02.493Z,15.00
2018-09-22T01:10:07.653Z,15.00
2018-09-22T01:11:12.650Z,15.00
2018-09-22T01:12:17.385Z,15.00
2018-09-22T01:13:22.368Z,15.00
2018-09-22T01:14:27.646Z,15.10
2018-09-22T01:15:32.952Z,15.00
2018-09-22T01:16:38.542Z,15.00
2018-09-22T01:17:43.135Z,15.00
2018-09-22T01:18:47.703Z,15.00
2018-09-22T01:19:52.296Z,14.90
2018-09-22T01:20:57.395Z,15.00
2018-09-22T01:22:02.052Z,14.90
2018-09-22T01:23:06.675Z,14.90
2018-09-22T01:24:11.396Z,14.90
2018-09-22T01:25:16.067Z,14.90
2018-09-22T01:26:20.672Z,15.00
2018-09-22T01:27:25.273Z,14.90
2018-09-22T01:28:29.892Z,14.90
2018-09-22T01:29:34.538Z,14.90
2018-09-22T01:30:39.163Z,14.90
2018-09-22T01:31:44.214Z,14.90
2018-09-22T01:32:48.919Z,14.90
2018-09-22T01:33:53.652Z,14.80
2018-09-22T01:34:58.295Z,14.80
2018-09-22T01:36:02.953Z,14.80
2018-09-22T01:37:07.520Z,14.70
2018-09-22T01:38:12.285Z,14.80
2018-09-22T01:39:17.118Z,14.80
2018-09-22T01:40:23.131Z,14.60
2018-09-22T01:41:27.800Z,14.70
2018-09-22T01:42:32.455Z,14.70
2018-09-22T01:43:37.035Z,14.60
2018-09-22T01:44:41.645Z,14.60
2018-09-22T01:45:51.585Z,14.60
2018-09-22T01:47:00.235Z,14.60
2018-09-22T01:48:04.937Z,13.80
2018-09-22T01:49:09.591Z,14.60
2018-09-22T01:50:14.191Z,14.80
2018-09-22T01:51:18.943Z,14.50
2018-09-22T01:52:23.546Z,14.50
2018-09-22T01:53:28.535Z,14.60
2018-09-22T01:54:33.096Z,14.50
2018-09-22T01:55:37.735Z,14.50
2018-09-22T01:56:42.533Z,14.50
2018-09-22T01:57:47.144Z,14.40
2018-09-22T01:58:52.147Z,14.50
2018-09-22T01:59:56.768Z,14.50
2018-09-22T02:01:01.327Z,14.50
2018-09-22T02:02:05.907Z,14.40
2018-09-22T02:03:10.967Z,13.60
2018-09-22T02:04:15.820Z,14.40
2018-09-22T02:05:20.446Z,14.40
2018-09-22T02:06:25.259Z,14.40
2018-09-22T02:07:29.848Z,14.40
2018-09-22T02:08:34.448Z,14.40
2018-09-22T02:09:39.191Z,14.40
2018-09-22T02:10:43.940Z,14.40
2018-09-22T02:11:48.969Z,14.40
2018-09-22T02:12:53.728Z,14.40
2018-09-22T02:13:58.461Z,14.40
2018-09-22T02:15:03.257Z,14.40
2018-09-22T02:16:07.912Z,14.40
2018-09-22T02:17:12.928Z,14.40
2018-09-22T02:18:17.500Z,14.30
2018-09-22T02:19:22.392Z,14.30
2018-09-22T02:20:27.791Z,14.30
2018-09-22T02:21:32.358Z,14.30
2018-09-22T02:22:36.942Z,14.30
2018-09-22T02:23:41.499Z,14.30
2018-09-22T02:24:46.160Z,14.30
2018-09-22T02:25:50.743Z,14.30
2018-09-22T02:26:55.302Z,14.30
2018-09-22T02:28:00.792Z,14.30
2018-09-22T02:29:05.951Z,14.30
2018-09-22T02:30:10.543Z,14.30
2018-09-22T02:31:15.132Z,14.30
2018-09-22T02:32:20.821Z,14.30
2018-09-22T02:33:25.564Z,14.20
2018-09-22T02:34:30.287Z,14.20
2018-09-22T02:35:36.845Z,14.30
2018-09-22T02:36:41.417Z,14.30
2018-09-22T02:37:45.986Z,14.30
2018-09-22T02:38:51.663Z,14.30
2018-09-22T02:39:56.251Z,14.30
2018-09-22T02:41:01.274Z,14.30
2018-09-22T02:42:05.903Z,14.30
2018-09-22T02:43:10.483Z,14.20
2018-09-22T02:44:16.223Z,14.30
2018-09-22T02:45:21.061Z,14.30
2018-09-22T02:46:25.672Z,14.20
2018-09-22T02:47:33.575Z,14.30
2018-09-22T02:48:38.128Z,14.20
2018-09-22T02:49:42.754Z,14.20
2018-09-22T02:50:47.700Z,14.20
2018-09-22T02:51:52.452Z,14.20
2018-09-22T02:52:57.003Z,14.20
2018-09-22T02:54:01.918Z,14.20
2018-09-22T02:55:07.428Z,14.20
2018-09-22T02:56:12.639Z,14.20
2018-09-22T02:57:18.069Z,14.20
2018-09-22T02:58:22.872Z,14.20
2018-09-22T02:59:27.472Z,14.20
2018-09-22T03:00:32.260Z,14.20
2018-09-22T03:01:37.292Z,14.20
2018-09-22T03:02:41.923Z,14.20
2018-09-22T03:03:47.035Z,14.20
2018-09-22T03:04:51.963Z,14.20
2018-09-22T03:05:56.517Z,14.20
2018-09-22T03:07:01.389Z,14.20
2018-09-22T03:08:06.379Z,14.20
2018-09-22T03:09:11.965Z,14.30
2018-09-22T03:10:17.067Z,14.20
2018-09-22T03:11:21.639Z,14.20
2018-09-22T03:12:26.245Z,14.20
2018-09-22T03:13:30.865Z,14.20
2018-09-22T03:14:35.436Z,14.30
2018-09-22T03:15:40.280Z,14.30
2018-09-22T03:16:45.165Z,14.20
2018-09-22T03:17:49.739Z,14.30
2018-09-22T03:18:54.325Z,14.30
2018-09-22T03:19:58.915Z,14.30
2018-09-22T03:21:03.990Z,14.30
2018-09-22T03:22:10.930Z,14.30
2018-09-22T03:23:15.474Z,14.30
2018-09-22T03:24:20.170Z,14.30
2018-09-22T03:25:24.747Z,14.20
2018-09-22T03:26:29.633Z,14.10
2018-09-22T03:27:34.280Z,14.20
2018-09-22T03:28:39.356Z,14.20
2018-09-22T03:29:43.902Z,14.20
2018-09-22T03:30:48.474Z,14.20
2018-09-22T03:31:53.296Z,14.20
2018-09-22T03:32:58.816Z,14.20
2018-09-22T03:34:03.856Z,14.20
2018-09-22T03:35:08.683Z,14.20
2018-09-22T03:36:13.280Z,14.20
2018-09-22T03:37:17.864Z,14.70
2018-09-22T03:38:22.594Z,14.20
2018-09-22T03:39:27.350Z,14.20
2018-09-22T03:40:31.928Z,14.20
2018-09-22T03:41:36.848Z,14.20
2018-09-22T03:42:41.659Z,14.30
2018-09-22T03:43:46.423Z,14.20
2018-09-22T03:44:51.119Z,14.30
2018-09-22T03:45:55.680Z,14.30
2018-09-22T03:47:00.259Z,14.20
2018-09-22T03:48:05.302Z,14.20
2018-09-22T03:49:10.699Z,14.20
2018-09-22T03:52:11.613Z,14.10
2018-09-22T03:53:15.979Z,14.10
2018-09-22T03:54:20.249Z,14.10
2018-09-22T03:55:24.506Z,14.10
2018-09-22T03:56:29.029Z,14.10
2018-09-22T03:57:33.537Z,14.20
2018-09-22T03:58:37.774Z,14.20
2018-09-22T03:59:43.425Z,14.20
2018-09-22T04:00:47.710Z,14.30
2018-09-22T04:01:51.998Z,14.10
2018-09-22T04:02:56.409Z,14.10
2018-09-22T04:04:00.674Z,14.10
2018-09-22T04:05:06.070Z,14.00
2018-09-22T04:06:10.534Z,13.70
2018-09-22T04:07:14.857Z,14.20
2018-09-22T04:08:19.721Z,14.20
2018-09-22T04:09:24.062Z,14.10
2018-09-22T04:10:28.313Z,14.10
2018-09-22T04:11:32.610Z,14.50
2018-09-22T04:12:37.069Z,14.10
2018-09-22T04:13:41.384Z,14.00
2018-09-22T04:14:45.717Z,14.10
2018-09-22T04:15:49.998Z,14.10
2018-09-22T04:16:54.870Z,14.10
2018-09-22T04:17:59.343Z,14.00
2018-09-22T04:19:03.607Z,14.10
2018-09-22T04:20:07.924Z,14.70
2018-09-22T04:22:08.617Z,14.00
2018-09-22T04:23:12.853Z,14.30
2018-09-22T04:24:18.625Z,14.00
2018-09-22T04:25:22.886Z,14.10
2018-09-22T04:26:28.284Z,14.10
2018-09-22T04:27:33.649Z,14.10
2018-09-22T04:28:38.221Z,14.20
2018-09-22T04:29:42.469Z,14.20
2018-09-22T04:30:46.953Z,14.10
2018-09-22T04:31:51.209Z,14.10
2018-09-22T04:32:55.535Z,14.10
2018-09-22T04:34:00.006Z,15.10
2018-09-22T04:35:04.555Z,14.10
2018-09-22T04:36:09.665Z,14.10
2018-09-22T04:37:14.555Z,13.90
2018-09-22T04:38:19.206Z,14.00
2018-09-22T04:39:23.490Z,14.00
2018-09-22T04:40:27.724Z,14.00
2018-09-22T04:41:32.149Z,13.90
2018-09-22T04:42:36.393Z,13.90
2018-09-22T04:43:40.993Z,13.90
2018-09-22T04:44:45.235Z,13.90
2018-09-22T04:45:49.836Z,13.90
2018-09-22T04:46:54.279Z,13.80
2018-09-22T04:47:58.530Z,13.90
2018-09-22T04:49:03.001Z,13.90
2018-09-22T04:50:07.430Z,13.80
2018-09-22T04:51:11.952Z,13.90
2018-09-22T04:52:16.267Z,13.90
2018-09-22T04:53:21.097Z,13.80
2018-09-22T04:54:25.601Z,13.90
2018-09-22T04:55:29.861Z,14.00
2018-09-22T04:56:34.530Z,14.00
2018-09-22T04:57:38.869Z,14.00
2018-09-22T04:58:43.544Z,13.80
2018-09-22T04:59:47.832Z,13.90
2018-09-22T05:00:52.237Z,14.00
2018-09-22T05:01:56.541Z,14.10
2018-09-22T05:03:00.875Z,14.00
2018-09-22T05:04:05.263Z,14.00
2018-09-22T05:05:09.703Z,14.00
2018-09-22T05:06:14.263Z,13.90
2018-09-22T05:07:18.553Z,14.00
2018-09-22T05:08:23.139Z,13.70
2018-09-22T05:09:27.435Z,14.00
2018-09-22T05:10:31.737Z,13.90
2018-09-22T05:11:36.150Z,14.00
2018-09-22T05:12:40.506Z,13.90
2018-09-22T05:13:44.934Z,13.90
2018-09-22T05:14:49.482Z,13.90
2018-09-22T05:15:53.916Z,13.90
2018-09-22T05:16:58.640Z,13.90
2018-09-22T05:18:03.200Z,14.00
2018-09-22T05:19:07.464Z,14.00
2018-09-22T05:20:12.220Z,13.90
2018-09-22T05:21:16.545Z,13.80
2018-09-22T05:22:21.753Z,14.10
2018-09-22T05:23:26.014Z,13.90
2018-09-22T05:24:30.293Z,13.90
2018-09-22T05:25:35.345Z,13.90
2018-09-22T05:26:39.667Z,14.00
2018-09-22T05:27:43.893Z,13.90
2018-09-22T05:28:49.749Z,14.00
2018-09-22T05:29:55.251Z,14.00
2018-09-22T05:31:00.054Z,14.80
2018-09-22T05:32:04.550Z,14.00
2018-09-22T05:33:09.076Z,14.20
2018-09-22T05:34:13.581Z,14.00
2018-09-22T05:35:17.816Z,14.00
2018-09-22T05:36:22.524Z,13.80
2018-09-22T05:37:26.923Z,14.00
2018-09-22T05:38:31.197Z,14.10
2018-09-22T05:39:36.609Z,14.40
2018-09-22T05:40:40.869Z,14.00
2018-09-22T05:41:45.182Z,14.20
2018-09-22T05:42:50.372Z,13.80
2018-09-22T05:43:57.292Z,13.90
2018-09-22T05:45:01.650Z,14.20
2018-09-22T05:46:06.654Z,13.80
2018-09-22T05:47:11.005Z,13.90
2018-09-22T05:48:15.462Z,14.40
2018-09-22T05:49:20.054Z,13.90
2018-09-22T05:50:24.708Z,13.80
2018-09-22T05:51:29.330Z,13.90
2018-09-22T05:52:33.574Z,13.90
2018-09-22T05:53:38.700Z,14.00
2018-09-22T05:54:43.159Z,14.00
2018-09-22T05:55:47.905Z,14.00
2018-09-22T05:56:52.420Z,14.00
2018-09-22T05:57:57.317Z,14.00
2018-09-22T05:59:01.569Z,14.00
2018-09-22T06:00:06.294Z,14.10
2018-09-22T06:01:10.572Z,14.10
2018-09-22T06:02:14.831Z,14.20
2018-09-22T06:03:19.259Z,14.10
2018-09-22T06:04:24.134Z,14.10
2018-09-22T06:05:28.660Z,14.10
2018-09-22T06:06:34.618Z,14.10
2018-09-22T06:07:39.298Z,14.10
2018-09-22T06:08:43.834Z,14.20
2018-09-22T06:09:48.802Z,14.20
2018-09-22T06:10:53.189Z,14.20
2018-09-22T06:11:57.850Z,14.20
2018-09-22T06:13:04.028Z,14.20
2018-09-22T06:14:08.271Z,14.10
2018-09-22T06:15:13.489Z,14.10
2018-09-22T06:16:18.691Z,14.10
2018-09-22T06:17:23.370Z,14.00
2018-09-22T06:18:28.797Z,14.00
2018-09-22T06:19:34.609Z,14.00
2018-09-22T06:20:38.883Z,14.00
2018-09-22T06:21:43.774Z,13.90
2018-09-22T06:22:48.150Z,13.90
2018-09-22T06:23:53.177Z,13.90
2018-09-22T06:24:57.429Z,13.90
2018-09-22T06:26:01.709Z,13.90
2018-09-22T06:27:06.505Z,14.00
2018-09-22T06:28:11.119Z,14.00
2018-09-22T06:29:15.381Z,13.90
2018-09-22T06:30:22.821Z,13.90
2018-09-22T06:31:27.301Z,14.00
2018-09-22T06:32:31.813Z,14.00
2018-09-22T06:33:36.350Z,14.00
2018-09-22T06:34:41.624Z,13.70
2018-09-22T06:35:45.911Z,14.10
2018-09-22T06:36:51.386Z,14.10
2018-09-22T06:37:55.683Z,14.10
2018-09-22T06:38:59.903Z,14.10
2018-09-22T06:40:04.186Z,14.10
2018-09-22T06:41:08.654Z,14.10
2018-09-22T06:42:12.962Z,14.00
2018-09-22T06:43:18.099Z,14.00
2018-09-22T06:44:24.574Z,14.00
2018-09-22T06:45:29.888Z,14.10
2018-09-22T06:46:35.108Z,14.30
2018-09-22T06:47:39.312Z,15.00
2018-09-22T06:48:43.614Z,14.10
2018-09-22T06:49:47.938Z,14.10
2018-09-22T06:50:52.184Z,14.10
2018-09-22T06:51:56.682Z,15.50
2018-09-22T06:53:01.266Z,14.20
2018-09-22T06:54:05.510Z,14.20
2018-09-22T06:55:09.965Z,14.10
2018-09-22T06:56:14.233Z,14.00
2018-09-22T06:57:18.519Z,14.10
2018-09-22T06:58:23.173Z,14.20
2018-09-22T06:59:27.638Z,15.10
2018-09-22T07:00:31.974Z,14.20
2018-09-22T07:01:37.995Z,14.20
2018-09-22T07:02:42.389Z,13.90
2018-09-22T07:03:46.934Z,14.20
2018-09-22T07:04:51.359Z,14.20
2018-09-22T07:05:55.815Z,14.20
2018-09-22T07:07:01.668Z,14.20
2018-09-22T07:08:05.975Z,14.30
2018-09-22T07:09:10.296Z,14.30
2018-09-22T07:10:14.816Z,15.50
2018-09-22T07:11:19.281Z,14.40
2018-09-22T07:12:25.076Z,14.40
2018-09-22T07:13:30.173Z,14.50
2018-09-22T07:14:34.494Z,14.50
2018-09-22T07:15:39.420Z,14.40
2018-09-22T07:16:43.696Z,14.40
2018-09-22T07:17:48.142Z,14.40
2018-09-22T07:18:54.670Z,14.50
2018-09-22T07:19:59.025Z,14.50
2018-09-22T07:21:06.421Z,14.60
2018-09-22T07:22:16.158Z,14.50
2018-09-22T07:23:21.225Z,14.30
2018-09-22T07:24:25.647Z,14.60
2018-09-22T07:25:30.153Z,14.60
2018-09-22T07:26:34.858Z,14.60
2018-09-22T07:27:40.213Z,14.20
2018-09-22T07:28:45.609Z,14.60
2018-09-22T07:29:49.999Z,14.60
2018-09-22T07:30:54.390Z,14.50
2018-09-22T07:31:58.875Z,14.60
2018-09-22T07:33:03.548Z,14.50
2018-09-22T07:34:08.100Z,14.60
2018-09-22T07:35:12.365Z,14.60
2018-09-22T07:36:16.806Z,14.70
2018-09-22T07:37:21.229Z,14.60
2018-09-22T07:38:25.562Z,14.70
2018-09-22T07:39:30.108Z,14.70
2018-09-22T07:40:35.010Z,14.80
2018-09-22T07:41:39.523Z,14.70
2018-09-22T07:42:43.857Z,14.70
2018-09-22T07:43:49.201Z,14.60
2018-09-22T07:44:53.707Z,14.60
2018-09-22T07:45:59.112Z,14.60
2018-09-22T07:47:03.472Z,14.60
2018-09-22T07:48:08.153Z,14.50
2018-09-22T07:49:13.370Z,14.50
2018-09-22T07:50:17.722Z,14.50
2018-09-22T07:51:22.378Z,14.50
2018-09-22T07:52:27.600Z,14.50
2018-09-22T07:53:32.157Z,14.50
2018-09-22T07:54:36.680Z,14.50
2018-09-22T07:55:41.172Z,14.60
2018-09-22T07:56:45.891Z,14.60
2018-09-22T07:57:50.925Z,14.60
2018-09-22T07:58:55.510Z,14.60
2018-09-22T08:00:00.049Z,13.40
2018-09-22T08:01:04.369Z,14.70
2018-09-22T08:02:09.730Z,14.70
2018-09-22T08:03:14.977Z,15.40
2018-09-22T08:04:19.224Z,14.70
2018-09-22T08:05:23.545Z,14.70
2018-09-22T08:06:29.262Z,14.70
2018-09-22T08:07:33.649Z,14.70
2018-09-22T08:08:38.245Z,14.80
2018-09-22T08:09:42.722Z,15.40
2018-09-22T08:10:47.030Z,14.90
2018-09-22T08:11:51.462Z,15.00
2018-09-22T08:12:55.789Z,15.00
2018-09-22T08:14:02.017Z,15.00
2018-09-22T08:15:08.313Z,15.00
2018-09-22T08:16:12.698Z,15.00
2018-09-22T08:17:17.948Z,15.00
2018-09-22T08:18:23.406Z,15.10
2018-09-22T08:19:30.225Z,15.10
2018-09-22T08:20:41.751Z,15.10
2018-09-22T08:21:46.689Z,15.10
2018-09-22T08:22:51.254Z,15.20
2018-09-22T08:23:55.608Z,15.20
2018-09-22T08:25:01.816Z,15.20
2018-09-22T08:26:06.750Z,13.60
2018-09-22T08:27:13.691Z,15.30
2018-09-22T08:28:19.383Z,15.60
2018-09-22T08:29:24.858Z,15.30
2018-09-22T08:30:29.245Z,15.30
2018-09-22T08:31:35.860Z,15.00
2018-09-22T08:32:41.073Z,15.40
2018-09-22T08:33:46.827Z,15.30
2018-09-22T08:34:51.174Z,15.40
2018-09-22T08:35:56.370Z,15.40
2018-09-22T08:37:01.473Z,15.40
2018-09-22T08:38:05.837Z,15.40
2018-09-22T08:39:13.845Z,15.50
2018-09-22T08:40:19.263Z,15.50
2018-09-22T08:41:26.335Z,15.50
2018-09-22T08:42:31.647Z,15.40
2018-09-22T08:43:43.500Z,15.50
2018-09-22T08:45:04.406Z,15.50
2018-09-22T08:46:09.265Z,15.60
2018-09-22T08:47:13.561Z,15.50
2018-09-22T08:48:23.270Z,16.20
2018-09-22T08:49:30.477Z,15.50
2018-09-22T08:50:35.204Z,15.60
2018-09-22T08:51:47.373Z,15.60
2018-09-22T08:52:55.565Z,15.60
2018-09-22T08:54:06.652Z,15.60
2018-09-22T08:55:13.589Z,15.50
2018-09-22T08:56:19.256Z,15.50
2018-09-22T08:57:33.312Z,15.10
2018-09-22T08:58:38.846Z,15.50
2018-09-22T08:59:44.280Z,15.50
2018-09-22T09:00:52.274Z,15.60
2018-09-22T09:01:57.094Z,15.60
2018-09-22T09:03:01.406Z,15.60
2018-09-22T09:04:05.917Z,15.60
2018-09-22T09:05:14.732Z,15.60
2018-09-22T09:06:20.767Z,15.60
2018-09-22T09:07:29.948Z,15.70
2018-09-22T09:08:37.706Z,15.70
2018-09-22T09:09:46.302Z,16.50
2018-09-22T09:10:50.841Z,15.70
2018-09-22T09:12:00.869Z,15.70
2018-09-22T09:13:06.350Z,15.80
2018-09-22T09:14:12.991Z,15.80
2018-09-22T09:15:17.559Z,15.90
2018-09-22T09:16:22.868Z,15.90
2018-09-22T09:18:30.419Z,14.60
2018-09-22T09:19:37.928Z,15.80
2018-09-22T09:20:42.729Z,15.90
2018-09-22T09:21:49.358Z,16.00
2018-09-22T09:22:56.032Z,16.00
2018-09-22T09:24:00.883Z,16.40
2018-09-22T09:25:05.601Z,16.10
2018-09-22T09:26:10.725Z,16.10
2018-09-22T09:27:15.092Z,16.20
2018-09-22T09:28:21.497Z,16.20
2018-09-22T09:29:27.348Z,16.30
2018-09-22T09:30:32.633Z,16.30
2018-09-22T09:31:37.976Z,15.20
2018-09-22T09:32:45.314Z,16.40
2018-09-22T09:33:54.373Z,16.40
2018-09-22T09:34:59.307Z,16.50
2018-09-22T09:36:04.230Z,16.50
2018-09-22T09:42:40.492Z,16.60
2018-09-22T09:43:50.649Z,16.60
2018-09-22T09:44:58.050Z,16.80
2018-09-22T09:46:02.558Z,16.80
2018-09-22T09:47:09.894Z,16.70
2018-09-22T09:48:16.739Z,16.80
2018-09-22T09:49:23.880Z,16.80
2018-09-22T09:50:32.329Z,16.80
2018-09-22T09:51:37.633Z,16.80
2018-09-22T09:52:44.830Z,16.90
2018-09-22T09:53:52.393Z,16.90
2018-09-22T09:54:58.312Z,17.00
2018-09-22T09:56:05.844Z,16.90
2018-09-22T09:57:12.807Z,16.90
2018-09-22T09:58:18.208Z,17.00
2018-09-22T09:59:23.327Z,17.00
2018-09-22T10:00:32.726Z,17.00
2018-09-22T10:01:37.800Z,15.10
2018-09-22T10:02:42.296Z,17.10
2018-09-22T10:04:01.323Z,17.10
2018-09-22T10:05:15.565Z,17.00
2018-09-22T10:06:19.880Z,17.00
2018-09-22T10:07:25.347Z,17.00
2018-09-22T10:08:32.309Z,17.00
2018-09-22T10:09:39.785Z,17.00
2018-09-22T10:10:45.372Z,17.00
2018-09-22T10:12:16.837Z,17.10
2018-09-22T10:13:24.957Z,17.10
2018-09-22T10:14:33.853Z,17.10
2018-09-22T10:15:38.429Z,16.30
2018-09-22T10:16:44.245Z,17.10
2018-09-22T10:17:51.748Z,17.10
2018-09-22T10:18:58.551Z,17.10
2018-09-22T10:20:04.697Z,17.10
2018-09-22T10:21:09.264Z,17.00
2018-09-22T10:22:21.686Z,17.00
2018-09-22T10:23:27.947Z,17.00
2018-09-22T10:24:37.152Z,17.00
2018-09-22T10:25:47.459Z,17.00
2018-09-22T10:26:52.601Z,17.00
2018-09-22T10:33:29.215Z,17.00
2018-09-22T10:34:40.779Z,17.10
2018-09-22T10:35:46.419Z,17.10
2018-09-22T10:36:50.758Z,17.10
2018-09-22T10:37:56.423Z,17.10
2018-09-22T10:39:02.330Z,17.00
2018-09-22T10:40:07.375Z,17.20
2018-09-22T10:41:12.449Z,17.20
2018-09-22T10:42:19.138Z,17.20
2018-09-22T10:43:24.153Z,17.20
2018-09-22T10:44:29.516Z,15.90
2018-09-22T10:45:53.302Z,17.30
2018-09-22T10:46:58.309Z,17.20
2018-09-22T10:48:03.355Z,17.30
2018-09-22T10:49:10.919Z,17.30
2018-09-22T10:50:15.930Z,17.30
2018-09-22T10:51:27.639Z,17.30
2018-09-22T10:58:06.205Z,17.20
2018-09-22T10:59:14.251Z,17.10
2018-09-22T11:00:19.802Z,17.10
2018-09-22T11:01:26.824Z,17.10
2018-09-22T11:02:32.588Z,17.10
2018-09-22T11:03:37.960Z,16.90
2018-09-22T11:04:42.226Z,17.00
2018-09-22T11:05:47.441Z,17.00
2018-09-22T11:06:54.249Z,16.60
2018-09-22T11:08:14.508Z,16.90
2018-09-22T11:09:19.281Z,16.90
2018-09-22T11:10:25.946Z,16.90
2018-09-22T11:11:30.497Z,16.90
2018-09-22T11:12:35.545Z,16.90
2018-09-22T11:13:39.868Z,16.90
2018-09-22T11:14:44.862Z,16.80
2018-09-22T11:15:50.658Z,16.80
2018-09-22T11:16:55.169Z,16.80
2018-09-22T11:17:59.660Z,16.90
2018-09-22T11:19:05.718Z,16.90
2018-09-22T11:20:11.569Z,16.90
2018-09-22T11:21:17.740Z,16.90
2018-09-22T11:22:28.444Z,16.90
2018-09-22T11:23:33.199Z,16.90
2018-09-22T11:24:37.756Z,16.90
2018-09-22T11:25:42.142Z,16.90
2018-09-22T11:26:47.361Z,16.90
2018-09-22T11:27:51.966Z,16.90
2018-09-22T11:28:56.274Z,16.90
2018-09-22T11:30:01.536Z,16.90
2018-09-22T11:31:06.934Z,17.00
2018-09-22T11:33:17.060Z,16.90
2018-09-22T11:34:21.489Z,17.00
2018-09-22T11:35:25.828Z,17.30
2018-09-22T11:36:31.019Z,17.00
2018-09-22T11:37:35.350Z,17.00
2018-09-22T11:38:39.809Z,15.90
2018-09-22T11:39:44.345Z,15.20
2018-09-22T11:40:49.254Z,17.10
2018-09-22T11:41:53.847Z,17.10
2018-09-22T11:42:58.933Z,17.10
2018-09-22T11:44:03.507Z,17.20
2018-09-22T11:45:09.451Z,17.90
2018-09-22T11:46:15.910Z,17.20
2018-09-22T11:47:20.289Z,17.30
2018-09-22T11:48:24.928Z,17.30
2018-09-22T11:49:29.730Z,17.30
2018-09-22T11:50:34.808Z,17.40
2018-09-22T11:51:42.014Z,17.40
2018-09-22T11:52:48.413Z,17.50
2018-09-22T11:53:53.257Z,17.60
2018-09-22T11:54:57.566Z,17.70
2018-09-22T11:56:02.298Z,17.90
2018-09-22T11:57:07.501Z,19.80
2018-09-22T11:58:13.115Z,18.20
2018-09-22T11:59:17.694Z,18.30
2018-09-22T12:00:23.378Z,18.50
2018-09-22T12:01:28.250Z,18.80
2018-09-22T12:02:33.561Z,18.70
2018-09-22T12:03:37.825Z,18.80
2018-09-22T12:04:42.135Z,18.80
2018-09-22T12:05:46.462Z,19.80
2018-09-22T12:06:52.652Z,18.70
2018-09-22T12:07:56.987Z,18.50
2018-09-22T12:09:05.339Z,18.60
2018-09-22T12:10:10.759Z,18.50
2018-09-22T12:11:15.020Z,17.70
2018-09-22T12:12:19.825Z,18.20
2018-09-22T12:13:24.409Z,18.20
2018-09-22T12:14:28.695Z,18.10
2018-09-22T12:15:33.251Z,18.10
2018-09-22T12:16:37.504Z,18.00
2018-09-22T12:17:41.813Z,17.90
2018-09-22T12:18:46.351Z,17.90
2018-09-22T12:19:50.636Z,17.90
2018-09-22T12:20:54.998Z,18.00
2018-09-22T12:21:59.439Z,17.90
2018-09-22T12:23:05.493Z,18.00
2018-09-22T12:24:12.220Z,18.00
2018-09-22T12:25:16.811Z,18.00
2018-09-22T12:26:21.665Z,17.90
2018-09-22T12:27:26.866Z,18.00
2018-09-22T12:28:31.350Z,18.00
2018-09-22T12:29:37.053Z,17.90
2018-09-22T12:30:45.842Z,18.00
2018-09-22T12:31:50.243Z,18.00
2018-09-22T12:32:56.300Z,18.00
2018-09-22T12:34:01.225Z,18.00
2018-09-22T12:35:08.120Z,18.00
2018-09-22T12:36:13.881Z,17.90
2018-09-22T12:37:18.827Z,17.90
2018-09-22T12:38:23.832Z,17.90
2018-09-22T12:39:28.655Z,18.00
2018-09-22T12:40:33.359Z,18.00
2018-09-22T12:41:40.948Z,18.10
2018-09-22T12:42:46.901Z,18.20
2018-09-22T12:43:52.332Z,18.30
2018-09-22T12:44:56.993Z,18.40
2018-09-22T12:46:01.750Z,18.40
2018-09-22T12:47:13.785Z,18.40
2018-09-22T12:48:20.571Z,18.40
2018-09-22T12:50:42.199Z,18.50
2018-09-22T12:51:48.683Z,18.50
2018-09-22T12:52:56.783Z,18.40
2018-09-22T12:54:01.365Z,18.30
2018-09-22T12:55:07.703Z,18.30
2018-09-22T12:56:12.810Z,18.30
2018-09-22T12:57:18.260Z,18.30
2018-09-22T12:58:24.669Z,18.10
2018-09-22T12:59:32.641Z,18.20
2018-09-22T13:00:41.540Z,18.10
2018-09-22T13:01:46.269Z,19.20
2018-09-22T13:02:55.483Z,16.60
2018-09-22T13:04:00.289Z,16.00
2018-09-22T13:05:10.043Z,18.10
2018-09-22T13:06:16.437Z,17.40
2018-09-22T13:07:22.012Z,18.10
2018-09-22T13:08:34.795Z,18.00
2018-09-22T13:09:43.258Z,17.90
2018-09-22T13:10:47.816Z,17.90
2018-09-22T13:11:55.340Z,17.80
2018-09-22T13:13:02.229Z,17.80
2018-09-22T13:14:07.141Z,17.80
2018-09-22T13:15:12.288Z,17.80
2018-09-22T13:16:17.707Z,17.30
2018-09-22T13:17:24.019Z,17.70
2018-09-22T13:18:33.274Z,17.70
2018-09-22T13:19:41.901Z,17.20
2018-09-22T13:20:48.323Z,17.70
2018-09-22T13:21:56.412Z,18.20
2018-09-22T13:23:14.226Z,17.70
2018-09-22T13:24:23.994Z,17.50
2018-09-22T13:25:41.437Z,17.50
2018-09-22T13:26:54.804Z,17.40
2018-09-22T13:28:22.066Z,17.20
2018-09-22T13:29:32.831Z,17.10
2018-09-22T13:30:55.128Z,16.80
2018-09-22T13:37:54.781Z,16.00
2018-09-22T13:38:59.820Z,15.90
2018-09-22T13:40:05.307Z,15.90
2018-09-22T13:41:10.464Z,15.80
2018-09-22T13:42:16.324Z,15.70
2018-09-22T13:43:21.423Z,15.70
2018-09-22T13:44:27.265Z,15.60
2018-09-22T13:45:32.053Z,15.50
2018-09-22T13:46:38.360Z,15.50
2018-09-22T13:47:44.142Z,15.40
2018-09-22T13:48:55.132Z,15.30
2018-09-22T13:50:03.435Z,15.10
2018-09-22T13:51:10.324Z,15.10
2018-09-22T13:53:54.934Z,15.00
2018-09-22T13:55:07.031Z,14.90
2018-09-22T13:56:13.508Z,15.00
2018-09-22T13:57:24.272Z,15.00
2018-09-22T13:58:31.621Z,15.20
2018-09-22T13:59:37.664Z,15.00
2018-09-22T14:00:43.729Z,14.90
2018-09-22T14:03:04.205Z,14.90
2018-09-22T14:05:25.020Z,14.90
2018-09-22T14:06:31.297Z,14.90
2018-09-22T14:07:36.586Z,15.20
2018-09-22T14:08:45.879Z,14.70
2018-09-22T14:09:50.673Z,14.40
2018-09-22T14:10:56.877Z,14.70
2018-09-22T14:12:01.414Z,14.60
2018-09-22T14:13:08.140Z,14.60
2018-09-22T14:14:14.527Z,14.50
2018-09-22T14:15:20.643Z,14.50
2018-09-22T14:16:25.457Z,14.50
2018-09-22T14:17:30.664Z,14.50
2018-09-22T14:18:35.271Z,14.50
2018-09-22T14:19:40.325Z,14.50
2018-09-22T14:20:45.841Z,14.50
2018-09-22T14:21:51.041Z,14.40
2018-09-22T14:22:57.905Z,14.40
2018-09-22T14:24:02.676Z,14.40
2018-09-22T14:25:09.011Z,14.40
2018-09-22T14:26:17.213Z,13.40
2018-09-22T14:27:21.818Z,14.30
2018-09-22T14:28:26.603Z,14.40
2018-09-22T14:29:31.151Z,13.80
2018-09-22T14:30:38.302Z,14.40
2018-09-22T14:31:43.416Z,14.30
2018-09-22T14:32:50.446Z,14.30
2018-09-22T14:33:55.123Z,14.50
2018-09-22T14:34:59.764Z,14.70
2018-09-22T14:36:05.350Z,14.10
2018-09-22T14:37:10.651Z,14.50
2018-09-22T14:38:15.043Z,14.50